sensor_id;sensor_type;location;lat;lon;timestamp;P1;durP1;ratioP1;P2;durP2;ratioP2
11964;SDS011;6042;41.326;19.826;2024-03-02T00:01:16;7.13;;;3.27;;
11964;SDS011;6042;41.326;19.826;2024-03-02T00:03:45;7.63;;;3.43;;
11964;SDS011;6042;41.326;19.826;2024-03-02T00:06:15;10.73;;;3.20;;
11964;SDS011;6042;41.326;19.826;2024-03-02T00:08:48;9.10;;;3.13;;
11964;SDS011;6042;41.326;19.826;2024-03-02T00:11:17;5.83;;;3.10;;
11964;SDS011;6042;41.326;19.826;2024-03-02T00:13:45;8.97;;;2.80;;
11964;SDS011;6042;41.326;19.826;2024-03-02T00:16:14;8.80;;;2.83;;
11964;SDS011;6042;41.326;19.826;2024-03-02T00:18:45;7.77;;;3.07;;
11964;SDS011;6042;41.326;19.826;2024-03-02T00:21:13;9.50;;;3.00;;
11964;SDS011;6042;41.326;19.826;2024-03-02T00:23:47;11.13;;;2.97;;
11964;SDS011;6042;41.326;19.826;2024-03-02T00:26:18;11.47;;;2.80;;
11964;SDS011;6042;41.326;19.826;2024-03-02T00:28:47;5.60;;;2.60;;
11964;SDS011;6042;41.326;19.826;2024-03-02T00:31:18;6.77;;;2.40;;
11964;SDS011;6042;41.326;19.826;2024-03-02T00:33:47;6.87;;;2.40;;
11964;SDS011;6042;41.326;19.826;2024-03-02T00:36:21;10.00;;;2.63;;
11964;SDS011;6042;41.326;19.826;2024-03-02T00:38:53;4.50;;;2.07;;
11964;SDS011;6042;41.326;19.826;2024-03-02T00:41:22;6.23;;;2.40;;
11964;SDS011;6042;41.326;19.826;2024-03-02T00:43:54;9.63;;;2.67;;
11964;SDS011;6042;41.326;19.826;2024-03-02T00:46:27;6.27;;;2.53;;
11964;SDS011;6042;41.326;19.826;2024-03-02T00:48:58;7.40;;;2.30;;
11964;SDS011;6042;41.326;19.826;2024-03-02T00:51:30;5.10;;;2.40;;
11964;SDS011;6042;41.326;19.826;2024-03-02T00:54:00;8.53;;;1.90;;
11964;SDS011;6042;41.326;19.826;2024-03-02T00:56:32;7.70;;;2.40;;
11964;SDS011;6042;41.326;19.826;2024-03-02T00:59:01;6.87;;;2.30;;
11964;SDS011;6042;41.326;19.826;2024-03-02T01:01:30;5.57;;;2.00;;
11964;SDS011;6042;41.326;19.826;2024-03-02T01:03:58;9.00;;;2.10;;
11964;SDS011;6042;41.326;19.826;2024-03-02T01:06:26;8.53;;;2.20;;
11964;SDS011;6042;41.326;19.826;2024-03-02T01:08:56;8.40;;;2.50;;
11964;SDS011;6042;41.326;19.826;2024-03-02T01:11:24;7.73;;;2.20;;
11964;SDS011;6042;41.326;19.826;2024-03-02T01:13:53;5.63;;;2.13;;
11964;SDS011;6042;41.326;19.826;2024-03-02T01:16:21;8.63;;;2.50;;
11964;SDS011;6042;41.326;19.826;2024-03-02T01:18:50;10.50;;;1.87;;
11964;SDS011;6042;41.326;19.826;2024-03-02T01:21:19;7.37;;;2.27;;
11964;SDS011;6042;41.326;19.826;2024-03-02T01:23:47;5.77;;;1.90;;
11964;SDS011;6042;41.326;19.826;2024-03-02T01:26:17;5.23;;;2.07;;
11964;SDS011;6042;41.326;19.826;2024-03-02T01:28:46;6.43;;;1.87;;
11964;SDS011;6042;41.326;19.826;2024-03-02T01:31:14;4.17;;;1.80;;
11964;SDS011;6042;41.326;19.826;2024-03-02T01:33:43;6.03;;;1.80;;
11964;SDS011;6042;41.326;19.826;2024-03-02T01:36:11;8.30;;;2.23;;
11964;SDS011;6042;41.326;19.826;2024-03-02T01:38:40;5.93;;;2.40;;
11964;SDS011;6042;41.326;19.826;2024-03-02T01:41:08;4.53;;;2.13;;
11964;SDS011;6042;41.326;19.826;2024-03-02T01:43:39;7.87;;;2.20;;
11964;SDS011;6042;41.326;19.826;2024-03-02T01:46:08;9.13;;;2.23;;
11964;SDS011;6042;41.326;19.826;2024-03-02T01:48:36;5.43;;;2.17;;
11964;SDS011;6042;41.326;19.826;2024-03-02T01:51:05;8.37;;;2.40;;
11964;SDS011;6042;41.326;19.826;2024-03-02T01:53:34;5.63;;;1.70;;
11964;SDS011;6042;41.326;19.826;2024-03-02T01:56:03;7.63;;;1.90;;
11964;SDS011;6042;41.326;19.826;2024-03-02T01:58:32;7.17;;;2.10;;
11964;SDS011;6042;41.326;19.826;2024-03-02T02:01:02;4.60;;;1.80;;
11964;SDS011;6042;41.326;19.826;2024-03-02T02:03:31;6.67;;;1.70;;
11964;SDS011;6042;41.326;19.826;2024-03-02T02:06:00;7.30;;;2.00;;
11964;SDS011;6042;41.326;19.826;2024-03-02T02:08:28;10.37;;;1.93;;
11964;SDS011;6042;41.326;19.826;2024-03-02T02:10:57;8.17;;;2.00;;
11964;SDS011;6042;41.326;19.826;2024-03-02T02:13:25;7.70;;;2.10;;
11964;SDS011;6042;41.326;19.826;2024-03-02T02:15:54;8.07;;;2.00;;
11964;SDS011;6042;41.326;19.826;2024-03-02T02:18:24;7.23;;;2.10;;
11964;SDS011;6042;41.326;19.826;2024-03-02T02:20:53;6.77;;;2.03;;
11964;SDS011;6042;41.326;19.826;2024-03-02T02:23:22;4.93;;;2.23;;
11964;SDS011;6042;41.326;19.826;2024-03-02T02:25:51;5.33;;;2.40;;
11964;SDS011;6042;41.326;19.826;2024-03-02T02:28:19;10.60;;;2.40;;
11964;SDS011;6042;41.326;19.826;2024-03-02T02:30:48;6.77;;;1.90;;
11964;SDS011;6042;41.326;19.826;2024-03-02T02:33:17;9.03;;;2.30;;
11964;SDS011;6042;41.326;19.826;2024-03-02T02:35:45;7.30;;;2.30;;
11964;SDS011;6042;41.326;19.826;2024-03-02T02:38:14;6.17;;;1.87;;
11964;SDS011;6042;41.326;19.826;2024-03-02T02:40:44;3.53;;;1.70;;
11964;SDS011;6042;41.326;19.826;2024-03-02T02:43:12;7.83;;;1.97;;
11964;SDS011;6042;41.326;19.826;2024-03-02T02:45:41;6.90;;;2.40;;
11964;SDS011;6042;41.326;19.826;2024-03-02T02:48:09;7.53;;;1.93;;
11964;SDS011;6042;41.326;19.826;2024-03-02T02:50:38;5.23;;;1.90;;
11964;SDS011;6042;41.326;19.826;2024-03-02T02:53:06;5.50;;;1.90;;
11964;SDS011;6042;41.326;19.826;2024-03-02T02:55:36;4.63;;;1.60;;
11964;SDS011;6042;41.326;19.826;2024-03-02T02:58:08;6.80;;;2.47;;
11964;SDS011;6042;41.326;19.826;2024-03-02T03:00:37;7.10;;;1.87;;
11964;SDS011;6042;41.326;19.826;2024-03-02T03:03:05;6.57;;;1.57;;
11964;SDS011;6042;41.326;19.826;2024-03-02T03:05:34;5.50;;;2.07;;
11964;SDS011;6042;41.326;19.826;2024-03-02T03:08:02;6.57;;;2.23;;
11964;SDS011;6042;41.326;19.826;2024-03-02T03:10:31;9.83;;;2.30;;
11964;SDS011;6042;41.326;19.826;2024-03-02T03:13:00;8.57;;;2.00;;
11964;SDS011;6042;41.326;19.826;2024-03-02T03:15:30;6.93;;;2.03;;
11964;SDS011;6042;41.326;19.826;2024-03-02T03:17:59;5.40;;;1.60;;
11964;SDS011;6042;41.326;19.826;2024-03-02T03:20:30;8.83;;;2.27;;
11964;SDS011;6042;41.326;19.826;2024-03-02T03:22:59;11.83;;;1.70;;
11964;SDS011;6042;41.326;19.826;2024-03-02T03:25:27;4.67;;;1.63;;
11964;SDS011;6042;41.326;19.826;2024-03-02T03:27:56;4.63;;;1.50;;
11964;SDS011;6042;41.326;19.826;2024-03-02T03:30:24;7.47;;;1.77;;
11964;SDS011;6042;41.326;19.826;2024-03-02T03:32:54;6.67;;;1.90;;
11964;SDS011;6042;41.326;19.826;2024-03-02T03:35:23;7.03;;;1.70;;
11964;SDS011;6042;41.326;19.826;2024-03-02T03:37:52;9.03;;;1.63;;
11964;SDS011;6042;41.326;19.826;2024-03-02T03:40:20;9.17;;;1.70;;
11964;SDS011;6042;41.326;19.826;2024-03-02T03:42:49;5.57;;;1.93;;
11964;SDS011;6042;41.326;19.826;2024-03-02T03:45:18;5.53;;;1.60;;
11964;SDS011;6042;41.326;19.826;2024-03-02T03:47:47;7.83;;;1.90;;
11964;SDS011;6042;41.326;19.826;2024-03-02T03:50:17;8.27;;;1.80;;
11964;SDS011;6042;41.326;19.826;2024-03-02T03:52:46;5.57;;;1.60;;
11964;SDS011;6042;41.326;19.826;2024-03-02T03:55:15;6.30;;;1.87;;
11964;SDS011;6042;41.326;19.826;2024-03-02T03:57:43;4.20;;;1.50;;
11964;SDS011;6042;41.326;19.826;2024-03-02T04:00:12;6.90;;;2.10;;
11964;SDS011;6042;41.326;19.826;2024-03-02T04:02:41;8.07;;;2.50;;
11964;SDS011;6042;41.326;19.826;2024-03-02T04:05:10;4.27;;;1.80;;
11964;SDS011;6042;41.326;19.826;2024-03-02T04:07:40;6.03;;;1.47;;
11964;SDS011;6042;41.326;19.826;2024-03-02T04:10:10;6.33;;;1.97;;
11964;SDS011;6042;41.326;19.826;2024-03-02T04:12:39;3.67;;;1.43;;
11964;SDS011;6042;41.326;19.826;2024-03-02T04:15:08;5.93;;;1.90;;
11964;SDS011;6042;41.326;19.826;2024-03-02T04:17:36;4.57;;;1.47;;
11964;SDS011;6042;41.326;19.826;2024-03-02T04:20:05;10.13;;;2.00;;
11964;SDS011;6042;41.326;19.826;2024-03-02T04:22:34;6.77;;;1.13;;
11964;SDS011;6042;41.326;19.826;2024-03-02T04:25:05;7.07;;;1.77;;
11964;SDS011;6042;41.326;19.826;2024-03-02T04:27:34;5.03;;;1.30;;
11964;SDS011;6042;41.326;19.826;2024-03-02T04:30:04;4.20;;;1.47;;
11964;SDS011;6042;41.326;19.826;2024-03-02T04:32:33;5.60;;;1.73;;
11964;SDS011;6042;41.326;19.826;2024-03-02T04:35:03;6.40;;;1.57;;
11964;SDS011;6042;41.326;19.826;2024-03-02T04:37:34;5.70;;;1.77;;
11964;SDS011;6042;41.326;19.826;2024-03-02T04:40:03;9.57;;;2.00;;
11964;SDS011;6042;41.326;19.826;2024-03-02T04:42:36;5.83;;;1.67;;
11964;SDS011;6042;41.326;19.826;2024-03-02T04:45:05;4.50;;;1.47;;
11964;SDS011;6042;41.326;19.826;2024-03-02T04:47:34;8.73;;;1.40;;
11964;SDS011;6042;41.326;19.826;2024-03-02T04:50:03;7.27;;;1.70;;
11964;SDS011;6042;41.326;19.826;2024-03-02T04:52:35;8.23;;;1.47;;
11964;SDS011;6042;41.326;19.826;2024-03-02T04:55:05;5.93;;;1.43;;
11964;SDS011;6042;41.326;19.826;2024-03-02T04:57:46;4.43;;;1.40;;
11964;SDS011;6042;41.326;19.826;2024-03-02T05:00:17;6.37;;;1.77;;
11964;SDS011;6042;41.326;19.826;2024-03-02T05:02:46;2.80;;;1.40;;
11964;SDS011;6042;41.326;19.826;2024-03-02T05:05:14;5.27;;;1.40;;
11964;SDS011;6042;41.326;19.826;2024-03-02T05:07:43;7.87;;;1.60;;
11964;SDS011;6042;41.326;19.826;2024-03-02T05:10:13;3.77;;;1.33;;
11964;SDS011;6042;41.326;19.826;2024-03-02T05:12:42;4.00;;;1.30;;
11964;SDS011;6042;41.326;19.826;2024-03-02T05:15:27;4.97;;;1.73;;
11964;SDS011;6042;41.326;19.826;2024-03-02T05:17:56;4.27;;;1.53;;
11964;SDS011;6042;41.326;19.826;2024-03-02T05:20:26;7.13;;;1.70;;
11964;SDS011;6042;41.326;19.826;2024-03-02T05:22:55;5.20;;;1.57;;
11964;SDS011;6042;41.326;19.826;2024-03-02T05:25:25;9.67;;;1.90;;
11964;SDS011;6042;41.326;19.826;2024-03-02T05:27:53;3.87;;;1.53;;
11964;SDS011;6042;41.326;19.826;2024-03-02T05:30:22;7.50;;;2.20;;
11964;SDS011;6042;41.326;19.826;2024-03-02T05:32:53;9.33;;;2.30;;
11964;SDS011;6042;41.326;19.826;2024-03-02T05:35:21;4.73;;;1.70;;
11964;SDS011;6042;41.326;19.826;2024-03-02T05:37:49;6.90;;;1.90;;
11964;SDS011;6042;41.326;19.826;2024-03-02T05:40:18;5.20;;;1.83;;
11964;SDS011;6042;41.326;19.826;2024-03-02T05:42:51;4.70;;;1.80;;
11964;SDS011;6042;41.326;19.826;2024-03-02T05:45:19;4.73;;;1.40;;
11964;SDS011;6042;41.326;19.826;2024-03-02T05:47:48;7.80;;;1.90;;
11964;SDS011;6042;41.326;19.826;2024-03-02T05:50:16;3.67;;;1.77;;
11964;SDS011;6042;41.326;19.826;2024-03-02T05:52:49;9.17;;;2.30;;
11964;SDS011;6042;41.326;19.826;2024-03-02T05:55:17;3.87;;;1.30;;
11964;SDS011;6042;41.326;19.826;2024-03-02T05:57:45;6.90;;;1.60;;
11964;SDS011;6042;41.326;19.826;2024-03-02T06:00:27;12.37;;;2.40;;
11964;SDS011;6042;41.326;19.826;2024-03-02T06:02:57;7.97;;;1.53;;
11964;SDS011;6042;41.326;19.826;2024-03-02T06:05:26;4.57;;;1.60;;
11964;SDS011;6042;41.326;19.826;2024-03-02T06:07:55;9.10;;;2.30;;
11964;SDS011;6042;41.326;19.826;2024-03-02T06:10:23;8.20;;;1.80;;
11964;SDS011;6042;41.326;19.826;2024-03-02T06:12:52;9.10;;;2.00;;
11964;SDS011;6042;41.326;19.826;2024-03-02T06:15:21;8.13;;;2.37;;
11964;SDS011;6042;41.326;19.826;2024-03-02T06:17:50;9.17;;;2.20;;
11964;SDS011;6042;41.326;19.826;2024-03-02T06:20:19;8.77;;;1.97;;
11964;SDS011;6042;41.326;19.826;2024-03-02T06:22:48;5.63;;;1.97;;
11964;SDS011;6042;41.326;19.826;2024-03-02T06:25:16;7.80;;;2.27;;
11964;SDS011;6042;41.326;19.826;2024-03-02T06:27:45;8.83;;;2.27;;
11964;SDS011;6042;41.326;19.826;2024-03-02T06:30:16;12.83;;;2.43;;
11964;SDS011;6042;41.326;19.826;2024-03-02T06:32:45;5.23;;;2.10;;
11964;SDS011;6042;41.326;19.826;2024-03-02T06:35:15;8.20;;;3.37;;
11964;SDS011;6042;41.326;19.826;2024-03-02T06:37:43;10.73;;;2.60;;
11964;SDS011;6042;41.326;19.826;2024-03-02T06:40:12;7.57;;;2.33;;
11964;SDS011;6042;41.326;19.826;2024-03-02T06:42:40;6.17;;;1.90;;
11964;SDS011;6042;41.326;19.826;2024-03-02T06:45:09;6.23;;;2.13;;
11964;SDS011;6042;41.326;19.826;2024-03-02T06:47:38;9.40;;;2.20;;
11964;SDS011;6042;41.326;19.826;2024-03-02T06:50:06;5.80;;;2.03;;
11964;SDS011;6042;41.326;19.826;2024-03-02T06:52:37;6.90;;;1.70;;
11964;SDS011;6042;41.326;19.826;2024-03-02T06:55:06;4.57;;;2.30;;
11964;SDS011;6042;41.326;19.826;2024-03-02T06:57:35;9.30;;;2.07;;
11964;SDS011;6042;41.326;19.826;2024-03-02T07:00:03;14.23;;;2.73;;
11964;SDS011;6042;41.326;19.826;2024-03-02T07:02:35;6.63;;;2.03;;
11964;SDS011;6042;41.326;19.826;2024-03-02T07:05:04;6.80;;;2.10;;
11964;SDS011;6042;41.326;19.826;2024-03-02T07:07:38;6.13;;;2.10;;
11964;SDS011;6042;41.326;19.826;2024-03-02T07:10:06;8.17;;;2.40;;
11964;SDS011;6042;41.326;19.826;2024-03-02T07:12:35;5.73;;;2.20;;
11964;SDS011;6042;41.326;19.826;2024-03-02T07:15:10;8.90;;;2.60;;
11964;SDS011;6042;41.326;19.826;2024-03-02T07:17:56;9.73;;;2.17;;
11964;SDS011;6042;41.326;19.826;2024-03-02T07:20:28;7.00;;;2.60;;
11964;SDS011;6042;41.326;19.826;2024-03-02T07:22:57;8.10;;;2.30;;
11964;SDS011;6042;41.326;19.826;2024-03-02T07:25:27;11.47;;;2.47;;
11964;SDS011;6042;41.326;19.826;2024-03-02T07:27:59;8.50;;;2.47;;
11964;SDS011;6042;41.326;19.826;2024-03-02T07:30:27;6.50;;;2.33;;
11964;SDS011;6042;41.326;19.826;2024-03-02T07:33:00;5.30;;;1.87;;
11964;SDS011;6042;41.326;19.826;2024-03-02T07:35:28;6.77;;;2.07;;
11964;SDS011;6042;41.326;19.826;2024-03-02T07:38:00;8.90;;;2.00;;
11964;SDS011;6042;41.326;19.826;2024-03-02T07:40:28;12.03;;;3.07;;
11964;SDS011;6042;41.326;19.826;2024-03-02T07:42:56;9.70;;;2.77;;
11964;SDS011;6042;41.326;19.826;2024-03-02T07:45:25;11.13;;;3.30;;
11964;SDS011;6042;41.326;19.826;2024-03-02T07:47:54;6.40;;;2.63;;
11964;SDS011;6042;41.326;19.826;2024-03-02T07:50:22;7.80;;;3.63;;
11964;SDS011;6042;41.326;19.826;2024-03-02T07:52:50;10.83;;;2.70;;
11964;SDS011;6042;41.326;19.826;2024-03-02T07:55:20;8.63;;;2.53;;
11964;SDS011;6042;41.326;19.826;2024-03-02T07:57:50;6.73;;;3.00;;
11964;SDS011;6042;41.326;19.826;2024-03-02T08:00:19;5.37;;;2.67;;
11964;SDS011;6042;41.326;19.826;2024-03-02T08:02:48;10.93;;;3.00;;
11964;SDS011;6042;41.326;19.826;2024-03-02T08:05:18;8.43;;;2.93;;
11964;SDS011;6042;41.326;19.826;2024-03-02T08:07:47;7.17;;;2.93;;
11964;SDS011;6042;41.326;19.826;2024-03-02T08:10:20;8.77;;;2.90;;
11964;SDS011;6042;41.326;19.826;2024-03-02T08:12:49;6.43;;;2.57;;
11964;SDS011;6042;41.326;19.826;2024-03-02T08:15:17;10.37;;;2.80;;
11964;SDS011;6042;41.326;19.826;2024-03-02T08:17:46;9.23;;;2.83;;
11964;SDS011;6042;41.326;19.826;2024-03-02T08:20:16;11.83;;;3.70;;
11964;SDS011;6042;41.326;19.826;2024-03-02T08:22:45;7.57;;;2.70;;
11964;SDS011;6042;41.326;19.826;2024-03-02T08:25:14;9.20;;;2.87;;
11964;SDS011;6042;41.326;19.826;2024-03-02T08:27:43;12.93;;;3.40;;
11964;SDS011;6042;41.326;19.826;2024-03-02T08:30:12;8.97;;;2.80;;
11964;SDS011;6042;41.326;19.826;2024-03-02T08:32:42;9.43;;;2.97;;
11964;SDS011;6042;41.326;19.826;2024-03-02T08:35:11;7.23;;;3.10;;
11964;SDS011;6042;41.326;19.826;2024-03-02T08:37:50;9.13;;;3.30;;
11964;SDS011;6042;41.326;19.826;2024-03-02T08:40:19;9.53;;;3.30;;
11964;SDS011;6042;41.326;19.826;2024-03-02T08:42:49;16.70;;;3.20;;
11964;SDS011;6042;41.326;19.826;2024-03-02T08:45:17;12.27;;;3.33;;
11964;SDS011;6042;41.326;19.826;2024-03-02T08:47:47;11.87;;;3.77;;
11964;SDS011;6042;41.326;19.826;2024-03-02T08:50:16;9.23;;;3.63;;
11964;SDS011;6042;41.326;19.826;2024-03-02T08:52:49;10.63;;;4.20;;
11964;SDS011;6042;41.326;19.826;2024-03-02T08:55:19;11.80;;;3.30;;
11964;SDS011;6042;41.326;19.826;2024-03-02T08:57:49;11.13;;;3.60;;
11964;SDS011;6042;41.326;19.826;2024-03-02T09:00:17;5.17;;;2.50;;
11964;SDS011;6042;41.326;19.826;2024-03-02T09:02:46;6.60;;;2.40;;
11964;SDS011;6042;41.326;19.826;2024-03-02T09:05:15;11.03;;;2.60;;
11964;SDS011;6042;41.326;19.826;2024-03-02T09:07:47;10.20;;;2.60;;
11964;SDS011;6042;41.326;19.826;2024-03-02T09:10:15;11.80;;;2.80;;
11964;SDS011;6042;41.326;19.826;2024-03-02T09:12:44;10.33;;;3.30;;
11964;SDS011;6042;41.326;19.826;2024-03-02T09:15:14;13.57;;;4.20;;
11964;SDS011;6042;41.326;19.826;2024-03-02T09:17:43;4.90;;;2.50;;
11964;SDS011;6042;41.326;19.826;2024-03-02T09:20:11;8.60;;;2.77;;
11964;SDS011;6042;41.326;19.826;2024-03-02T09:22:40;11.10;;;2.67;;
11964;SDS011;6042;41.326;19.826;2024-03-02T09:25:09;11.13;;;2.43;;
11964;SDS011;6042;41.326;19.826;2024-03-02T09:27:37;8.03;;;2.60;;
11964;SDS011;6042;41.326;19.826;2024-03-02T09:30:08;5.43;;;1.93;;
11964;SDS011;6042;41.326;19.826;2024-03-02T09:32:38;13.43;;;2.90;;
11964;SDS011;6042;41.326;19.826;2024-03-02T09:35:07;10.00;;;2.10;;
11964;SDS011;6042;41.326;19.826;2024-03-02T09:37:36;10.87;;;2.10;;
11964;SDS011;6042;41.326;19.826;2024-03-02T09:40:05;7.40;;;2.00;;
11964;SDS011;6042;41.326;19.826;2024-03-02T09:42:34;9.13;;;2.03;;
11964;SDS011;6042;41.326;19.826;2024-03-02T09:45:03;4.73;;;1.67;;
11964;SDS011;6042;41.326;19.826;2024-03-02T09:47:33;8.20;;;2.20;;
11964;SDS011;6042;41.326;19.826;2024-03-02T09:50:03;10.23;;;2.40;;
11964;SDS011;6042;41.326;19.826;2024-03-02T09:52:32;9.03;;;2.70;;
11964;SDS011;6042;41.326;19.826;2024-03-02T09:55:02;9.27;;;1.90;;
11964;SDS011;6042;41.326;19.826;2024-03-02T09:57:32;11.00;;;2.63;;
11964;SDS011;6042;41.326;19.826;2024-03-02T10:00:00;13.47;;;2.40;;
11964;SDS011;6042;41.326;19.826;2024-03-02T10:02:30;7.47;;;2.03;;
11964;SDS011;6042;41.326;19.826;2024-03-02T10:04:59;14.57;;;2.50;;
11964;SDS011;6042;41.326;19.826;2024-03-02T10:07:32;17.40;;;3.80;;
11964;SDS011;6042;41.326;19.826;2024-03-02T10:10:11;9.87;;;2.40;;
11964;SDS011;6042;41.326;19.826;2024-03-02T10:12:41;8.50;;;2.30;;
11964;SDS011;6042;41.326;19.826;2024-03-02T10:15:10;10.33;;;2.27;;
11964;SDS011;6042;41.326;19.826;2024-03-02T10:17:38;13.03;;;2.80;;
11964;SDS011;6042;41.326;19.826;2024-03-02T10:20:22;10.43;;;2.50;;
11964;SDS011;6042;41.326;19.826;2024-03-02T10:22:53;11.03;;;3.50;;
11964;SDS011;6042;41.326;19.826;2024-03-02T10:25:30;13.80;;;3.07;;
11964;SDS011;6042;41.326;19.826;2024-03-02T10:28:03;17.23;;;3.50;;
11964;SDS011;6042;41.326;19.826;2024-03-02T10:30:33;14.40;;;2.73;;
11964;SDS011;6042;41.326;19.826;2024-03-02T10:33:01;8.90;;;2.07;;
11964;SDS011;6042;41.326;19.826;2024-03-02T10:35:30;10.53;;;2.73;;
11964;SDS011;6042;41.326;19.826;2024-03-02T10:38:04;9.90;;;3.13;;
11964;SDS011;6042;41.326;19.826;2024-03-02T10:40:33;9.13;;;3.00;;
11964;SDS011;6042;41.326;19.826;2024-03-02T10:43:02;13.73;;;4.17;;
11964;SDS011;6042;41.326;19.826;2024-03-02T10:45:32;12.50;;;3.23;;
11964;SDS011;6042;41.326;19.826;2024-03-02T10:48:01;12.03;;;2.67;;
11964;SDS011;6042;41.326;19.826;2024-03-02T10:50:32;12.70;;;2.97;;
11964;SDS011;6042;41.326;19.826;2024-03-02T10:53:01;13.53;;;3.57;;
11964;SDS011;6042;41.326;19.826;2024-03-02T10:55:32;11.50;;;2.60;;
11964;SDS011;6042;41.326;19.826;2024-03-02T10:58:02;10.90;;;3.03;;
11964;SDS011;6042;41.326;19.826;2024-03-02T11:00:34;14.70;;;2.70;;
11964;SDS011;6042;41.326;19.826;2024-03-02T11:03:06;15.43;;;3.10;;
11964;SDS011;6042;41.326;19.826;2024-03-02T11:05:36;11.33;;;2.83;;
11964;SDS011;6042;41.326;19.826;2024-03-02T11:08:08;38.07;;;16.33;;
11964;SDS011;6042;41.326;19.826;2024-03-02T11:10:44;13.60;;;2.50;;
11964;SDS011;6042;41.326;19.826;2024-03-02T11:13:20;9.77;;;2.70;;
11964;SDS011;6042;41.326;19.826;2024-03-02T11:15:52;9.93;;;2.60;;
11964;SDS011;6042;41.326;19.826;2024-03-02T11:18:23;8.93;;;3.40;;
11964;SDS011;6042;41.326;19.826;2024-03-02T11:20:53;15.37;;;4.93;;
11964;SDS011;6042;41.326;19.826;2024-03-02T11:23:23;14.20;;;3.10;;
11964;SDS011;6042;41.326;19.826;2024-03-02T11:26:20;16.57;;;3.63;;
11964;SDS011;6042;41.326;19.826;2024-03-02T11:28:50;14.57;;;3.17;;
11964;SDS011;6042;41.326;19.826;2024-03-02T11:31:19;10.13;;;2.80;;
11964;SDS011;6042;41.326;19.826;2024-03-02T11:33:47;8.97;;;2.80;;
11964;SDS011;6042;41.326;19.826;2024-03-02T11:36:16;11.30;;;2.80;;
11964;SDS011;6042;41.326;19.826;2024-03-02T11:38:45;12.50;;;3.13;;
11964;SDS011;6042;41.326;19.826;2024-03-02T11:41:14;11.70;;;3.17;;
11964;SDS011;6042;41.326;19.826;2024-03-02T11:43:45;10.83;;;2.70;;
11964;SDS011;6042;41.326;19.826;2024-03-02T11:46:15;14.87;;;3.40;;
11964;SDS011;6042;41.326;19.826;2024-03-02T11:48:44;12.93;;;3.93;;
11964;SDS011;6042;41.326;19.826;2024-03-02T11:51:14;22.57;;;3.67;;
11964;SDS011;6042;41.326;19.826;2024-03-02T11:53:44;10.97;;;3.17;;
11964;SDS011;6042;41.326;19.826;2024-03-02T11:56:14;11.63;;;3.83;;
11964;SDS011;6042;41.326;19.826;2024-03-02T11:58:46;20.87;;;3.70;;
11964;SDS011;6042;41.326;19.826;2024-03-02T12:01:15;22.40;;;8.83;;
11964;SDS011;6042;41.326;19.826;2024-03-02T12:03:44;13.57;;;2.80;;
11964;SDS011;6042;41.326;19.826;2024-03-02T12:06:15;12.17;;;2.60;;
11964;SDS011;6042;41.326;19.826;2024-03-02T12:08:45;9.87;;;2.13;;
11964;SDS011;6042;41.326;19.826;2024-03-02T12:11:14;9.47;;;2.77;;
11964;SDS011;6042;41.326;19.826;2024-03-02T12:13:52;10.80;;;3.00;;
11964;SDS011;6042;41.326;19.826;2024-03-02T12:16:24;14.87;;;3.73;;
11964;SDS011;6042;41.326;19.826;2024-03-02T12:18:52;13.87;;;2.97;;
11964;SDS011;6042;41.326;19.826;2024-03-02T12:21:22;16.37;;;4.03;;
11964;SDS011;6042;41.326;19.826;2024-03-02T12:23:51;13.33;;;3.03;;
11964;SDS011;6042;41.326;19.826;2024-03-02T12:26:19;10.63;;;3.57;;
11964;SDS011;6042;41.326;19.826;2024-03-02T12:28:48;10.53;;;3.00;;
11964;SDS011;6042;41.326;19.826;2024-03-02T12:31:18;13.50;;;3.80;;
11964;SDS011;6042;41.326;19.826;2024-03-02T12:33:46;16.47;;;7.07;;
11964;SDS011;6042;41.326;19.826;2024-03-02T12:36:15;16.77;;;3.60;;
11964;SDS011;6042;41.326;19.826;2024-03-02T12:38:43;11.00;;;3.87;;
11964;SDS011;6042;41.326;19.826;2024-03-02T12:41:14;13.20;;;3.63;;
11964;SDS011;6042;41.326;19.826;2024-03-02T12:43:43;14.77;;;4.37;;
11964;SDS011;6042;41.326;19.826;2024-03-02T12:46:11;16.87;;;4.53;;
11964;SDS011;6042;41.326;19.826;2024-03-02T12:48:41;21.73;;;4.80;;
11964;SDS011;6042;41.326;19.826;2024-03-02T12:51:10;12.33;;;3.77;;
11964;SDS011;6042;41.326;19.826;2024-03-02T12:53:38;17.77;;;4.07;;
11964;SDS011;6042;41.326;19.826;2024-03-02T12:56:07;13.33;;;3.20;;
11964;SDS011;6042;41.326;19.826;2024-03-02T12:58:38;18.67;;;3.63;;
11964;SDS011;6042;41.326;19.826;2024-03-02T13:01:07;12.73;;;3.53;;
11964;SDS011;6042;41.326;19.826;2024-03-02T13:03:37;18.67;;;4.13;;
11964;SDS011;6042;41.326;19.826;2024-03-02T13:06:07;13.20;;;3.33;;
11964;SDS011;6042;41.326;19.826;2024-03-02T13:08:36;11.20;;;3.03;;
11964;SDS011;6042;41.326;19.826;2024-03-02T13:11:05;16.90;;;3.73;;
11964;SDS011;6042;41.326;19.826;2024-03-02T13:13:35;10.63;;;3.43;;
11964;SDS011;6042;41.326;19.826;2024-03-02T13:16:04;13.63;;;3.53;;
11964;SDS011;6042;41.326;19.826;2024-03-02T13:18:38;17.63;;;3.83;;
11964;SDS011;6042;41.326;19.826;2024-03-02T13:21:08;19.87;;;5.03;;
11964;SDS011;6042;41.326;19.826;2024-03-02T13:23:36;19.97;;;4.27;;
11964;SDS011;6042;41.326;19.826;2024-03-02T13:26:05;20.77;;;4.00;;
11964;SDS011;6042;41.326;19.826;2024-03-02T13:28:34;10.67;;;3.77;;
11964;SDS011;6042;41.326;19.826;2024-03-02T13:31:02;23.73;;;3.93;;
11964;SDS011;6042;41.326;19.826;2024-03-02T13:33:31;24.77;;;4.73;;
11964;SDS011;6042;41.326;19.826;2024-03-02T13:36:00;18.57;;;4.47;;
11964;SDS011;6042;41.326;19.826;2024-03-02T13:38:31;17.10;;;4.50;;
11964;SDS011;6042;41.326;19.826;2024-03-02T13:40:59;19.67;;;3.60;;
11964;SDS011;6042;41.326;19.826;2024-03-02T13:43:28;17.37;;;4.60;;
11964;SDS011;6042;41.326;19.826;2024-03-02T13:45:58;17.67;;;3.63;;
11964;SDS011;6042;41.326;19.826;2024-03-02T13:48:27;9.53;;;3.23;;
11964;SDS011;6042;41.326;19.826;2024-03-02T13:50:55;17.97;;;3.47;;
11964;SDS011;6042;41.326;19.826;2024-03-02T13:53:25;12.10;;;3.43;;
11964;SDS011;6042;41.326;19.826;2024-03-02T13:55:55;12.10;;;3.47;;
11964;SDS011;6042;41.326;19.826;2024-03-02T13:58:25;17.13;;;3.93;;
11964;SDS011;6042;41.326;19.826;2024-03-02T14:00:54;12.07;;;3.53;;
11964;SDS011;6042;41.326;19.826;2024-03-02T14:03:26;16.77;;;4.00;;
11964;SDS011;6042;41.326;19.826;2024-03-02T14:05:57;11.60;;;4.27;;
11964;SDS011;6042;41.326;19.826;2024-03-02T14:08:26;10.23;;;3.43;;
11964;SDS011;6042;41.326;19.826;2024-03-02T14:10:55;13.13;;;3.43;;
11964;SDS011;6042;41.326;19.826;2024-03-02T14:13:28;14.20;;;4.33;;
11964;SDS011;6042;41.326;19.826;2024-03-02T14:15:56;14.33;;;3.63;;
11964;SDS011;6042;41.326;19.826;2024-03-02T14:18:25;16.70;;;4.23;;
11964;SDS011;6042;41.326;19.826;2024-03-02T14:20:56;14.43;;;4.10;;
11964;SDS011;6042;41.326;19.826;2024-03-02T14:23:24;13.73;;;4.30;;
11964;SDS011;6042;41.326;19.826;2024-03-02T14:25:56;22.10;;;4.83;;
11964;SDS011;6042;41.326;19.826;2024-03-02T14:28:26;13.83;;;3.80;;
11964;SDS011;6042;41.326;19.826;2024-03-02T14:31:14;10.80;;;3.47;;
11964;SDS011;6042;41.326;19.826;2024-03-02T14:33:43;14.97;;;3.10;;
11964;SDS011;6042;41.326;19.826;2024-03-02T14:36:12;13.50;;;3.77;;
11964;SDS011;6042;41.326;19.826;2024-03-02T14:38:40;16.17;;;3.87;;
11964;SDS011;6042;41.326;19.826;2024-03-02T14:41:11;11.80;;;3.40;;
11964;SDS011;6042;41.326;19.826;2024-03-02T14:43:40;9.03;;;3.93;;
11964;SDS011;6042;41.326;19.826;2024-03-02T14:46:09;16.13;;;5.63;;
11964;SDS011;6042;41.326;19.826;2024-03-02T14:48:38;18.00;;;5.00;;
11964;SDS011;6042;41.326;19.826;2024-03-02T14:51:11;16.60;;;4.13;;
11964;SDS011;6042;41.326;19.826;2024-03-02T14:53:43;17.10;;;4.03;;
11964;SDS011;6042;41.326;19.826;2024-03-02T14:56:13;13.67;;;4.10;;
11964;SDS011;6042;41.326;19.826;2024-03-02T14:58:45;12.63;;;3.63;;